Time;durP1;ratioP1;P1;durP2;ratioP2;P2;SDS_P1;SDS_P2;PMS_P1;PMS_P2;Temp;Humidity;BMP_temperature;BMP_pressure;BME280_temperature;BME280_humidity;BME280_pressure;Samples;Min_cycle;Max_cycle;Signal;HPM_P1;HPM_P2
2023/05/15 00:01:34;;;;;;;24.30;12.90;;;;;;;;;;6264141;28;20225;-61
2023/05/15 00:04:35;;;;;;;18.00;11.37;;;;;;;;;;6262681;28;20216;-61
2023/05/15 00:07:37;;;;;;;23.53;12.23;;;;;;;;;;6258743;28;20263;-61
2023/05/15 00:10:38;;;;;;;22.30;12.83;;;;;;;;;;6275331;28;20243;-61
2023/05/15 00:13:39;;;;;;;18.07;10.33;;;;;;;;;;6255637;28;20214;-61
2023/05/15 00:16:40;;;;;;;12.87;8.63;;;;;;;;;;6257308;28;20193;-61
2023/05/15 00:19:42;;;;;;;14.67;9.83;;;;;;;;;;6251719;28;20214;-61
2023/05/15 00:22:43;;;;;;;22.60;12.20;;;;;;;;;;6272887;28;20193;-61
2023/05/15 00:25:44;;;;;;;18.80;10.33;;;;;;;;;;6245534;28;20190;-61
2023/05/15 00:28:45;;;;;;;22.87;13.07;;;;;;;;;;6257965;28;20196;-61
2023/05/15 00:31:46;;;;;;;15.60;11.13;;;;;;;;;;6246198;28;20194;-61
2023/05/15 00:34:47;;;;;;;27.20;13.13;;;;;;;;;;6271109;28;20197;-61
2023/05/15 00:37:48;;;;;;;16.77;9.47;;;;;;;;;;6256392;28;20397;-61
2023/05/15 00:40:49;;;;;;;14.83;9.20;;;;;;;;;;6248482;28;20576;-61
2023/05/15 00:43:52;;;;;;;11.80;7.97;;;;;;;;;;6247573;28;20191;-61
2023/05/15 00:46:54;;;;;;;12.23;7.50;;;;;;;;;;6278101;28;20218;-61
2023/05/15 00:49:55;;;;;;;19.57;9.37;;;;;;;;;;6256880;28;20214;-60
2023/05/15 00:52:56;;;;;;;19.77;11.03;;;;;;;;;;6258162;28;20190;-60
2023/05/15 00:55:58;;;;;;;20.63;11.10;;;;;;;;;;6266816;28;20223;-60
2023/05/15 00:59:00;;;;;;;15.27;9.73;;;;;;;;;;6269269;28;20222;-60
2023/05/15 01:02:01;;;;;;;13.10;8.17;;;;;;;;;;6263179;28;20281;-60
2023/05/15 01:05:03;;;;;;;19.00;9.77;;;;;;;;;;6257043;28;20182;-60
2023/05/15 01:08:07;;;;;;;18.33;9.80;;;;;;;;;;6266724;28;20182;-61
2023/05/15 01:11:08;;;;;;;17.13;9.07;;;;;;;;;;6268598;28;20194;-61
2023/05/15 01:14:09;;;;;;;10.40;8.10;;;;;;;;;;6258077;28;20288;-61
2023/05/15 01:17:10;;;;;;;16.33;8.97;;;;;;;;;;6250598;28;20198;-61
2023/05/15 01:20:12;;;;;;;12.10;6.50;;;;;;;;;;6260025;28;20213;-60
2023/05/15 01:23:23;;;;;;;11.83;6.77;;;;;;;;;;6239519;28;20190;-60
2023/05/15 01:26:33;;;;;;;15.07;8.50;;;;;;;;;;6262422;28;20236;-60
2023/05/15 01:29:49;;;;;;;7.63;5.63;;;;;;;;;;6267509;28;20214;-60
2023/05/15 01:32:55;;;;;;;10.50;6.73;;;;;;;;;;6265455;28;20187;-60
2023/05/15 01:36:04;;;;;;;10.40;6.23;;;;;;;;;;6272159;28;20194;-60
2023/05/15 01:39:06;;;;;;;7.37;4.93;;;;;;;;;;6271117;28;20232;-60
2023/05/15 01:42:08;;;;;;;7.93;5.57;;;;;;;;;;6246651;28;20198;-60
2023/05/15 01:45:11;;;;;;;11.37;7.20;;;;;;;;;;6247678;28;20194;-60
2023/05/15 01:48:13;;;;;;;11.37;6.27;;;;;;;;;;6266022;28;20225;-60
2023/05/15 01:51:14;;;;;;;13.60;7.40;;;;;;;;;;6248915;28;20202;-60
2023/05/15 01:54:16;;;;;;;7.97;5.77;;;;;;;;;;6269180;28;20193;-60
2023/05/15 01:57:18;;;;;;;7.10;5.30;;;;;;;;;;6242287;28;20196;-60
2023/05/15 02:00:20;;;;;;;6.60;5.07;;;;;;;;;;6270136;28;20571;-60
2023/05/15 02:03:22;;;;;;;9.57;4.63;;;;;;;;;;6261511;28;20195;-60
2023/05/15 02:06:24;;;;;;;7.77;5.30;;;;;;;;;;6245288;28;20193;-60
2023/05/15 02:09:25;;;;;;;5.63;4.43;;;;;;;;;;6266725;28;20217;-59
2023/05/15 02:12:27;;;;;;;6.53;4.30;;;;;;;;;;6247322;28;20709;-60
2023/05/15 02:15:29;;;;;;;4.37;3.80;;;;;;;;;;6251217;28;20202;-60
2023/05/15 02:18:30;;;;;;;4.93;3.60;;;;;;;;;;6257267;28;20198;-60
2023/05/15 02:21:31;;;;;;;6.00;3.53;;;;;;;;;;6234770;28;20244;-60
2023/05/15 02:24:32;;;;;;;6.47;4.83;;;;;;;;;;6246491;28;20205;-60
2023/05/15 02:27:38;;;;;;;4.47;3.60;;;;;;;;;;6256334;28;20182;-60
2023/05/15 02:30:39;;;;;;;4.93;4.03;;;;;;;;;;6270398;28;20217;-60
2023/05/15 02:33:58;;;;;;;6.13;4.30;;;;;;;;;;6270727;28;20189;-60
2023/05/15 02:37:00;;;;;;;4.47;3.63;;;;;;;;;;6266521;28;20191;-60
2023/05/15 02:40:05;;;;;;;5.50;3.40;;;;;;;;;;6270852;28;20218;-60
2023/05/15 02:43:08;;;;;;;4.13;3.63;;;;;;;;;;6256622;28;20183;-60
2023/05/15 02:46:10;;;;;;;4.60;3.50;;;;;;;;;;6249099;28;20187;-60
2023/05/15 02:49:11;;;;;;;5.53;3.87;;;;;;;;;;6267938;28;20186;-61
2023/05/15 02:52:12;;;;;;;5.77;4.00;;;;;;;;;;6254704;28;20201;-61
2023/05/15 02:55:13;;;;;;;7.90;3.97;;;;;;;;;;6267812;28;20270;-61
2023/05/15 02:58:14;;;;;;;5.00;3.97;;;;;;;;;;6264007;28;20629;-61
2023/05/15 03:01:15;;;;;;;3.60;2.83;;;;;;;;;;6261316;28;20217;-61
2023/05/15 03:04:17;;;;;;;6.80;4.13;;;;;;;;;;6258650;28;20197;-61
2023/05/15 03:07:18;;;;;;;7.60;4.20;;;;;;;;;;6273273;28;20186;-61
2023/05/15 03:10:22;;;;;;;6.80;3.80;;;;;;;;;;6258569;28;20255;-61
2023/05/15 03:13:23;;;;;;;12.43;6.33;;;;;;;;;;6256312;28;20241;-61
2023/05/15 03:16:25;;;;;;;8.97;5.07;;;;;;;;;;6275384;28;20190;-62
2023/05/15 03:19:26;;;;;;;5.20;3.53;;;;;;;;;;6254259;28;20226;-62
2023/05/15 03:22:27;;;;;;;6.47;3.60;;;;;;;;;;6264354;28;20207;-62
2023/05/15 03:25:28;;;;;;;5.50;3.90;;;;;;;;;;6261726;28;20235;-62
2023/05/15 03:28:29;;;;;;;14.40;6.50;;;;;;;;;;6263155;28;20191;-62
2023/05/15 03:31:30;;;;;;;7.80;4.10;;;;;;;;;;6258028;28;20280;-62
2023/05/15 03:34:31;;;;;;;4.07;3.67;;;;;;;;;;6261737;28;20194;-62
2023/05/15 03:37:32;;;;;;;5.57;3.60;;;;;;;;;;6256256;28;20237;-62
2023/05/15 03:40:33;;;;;;;5.10;3.50;;;;;;;;;;6260512;28;20225;-63
2023/05/15 03:43:34;;;;;;;4.03;3.23;;;;;;;;;;6255480;28;20185;-63
2023/05/15 03:46:35;;;;;;;5.70;3.70;;;;;;;;;;6242731;28;20206;-62
2023/05/15 03:49:36;;;;;;;6.13;3.40;;;;;;;;;;6251455;28;20644;-62
2023/05/15 03:52:37;;;;;;;7.00;3.40;;;;;;;;;;6241594;28;20198;-62
2023/05/15 03:55:38;;;;;;;8.23;6.13;;;;;;;;;;6259891;28;20201;-62
2023/05/15 03:58:39;;;;;;;9.13;5.27;;;;;;;;;;6239804;28;20247;-63
2023/05/15 04:01:41;;;;;;;7.53;4.90;;;;;;;;;;6246550;28;20221;-63
2023/05/15 04:04:43;;;;;;;5.00;3.77;;;;;;;;;;6261875;28;20186;-63
2023/05/15 04:07:44;;;;;;;8.03;4.87;;;;;;;;;;6255777;28;20189;-61
2023/05/15 04:10:45;;;;;;;11.60;5.03;;;;;;;;;;6262701;28;20194;-61
2023/05/15 04:13:46;;;;;;;9.57;5.00;;;;;;;;;;6256995;28;20202;-61
2023/05/15 04:16:47;;;;;;;17.10;7.00;;;;;;;;;;6258811;28;20193;-62
2023/05/15 04:19:48;;;;;;;11.17;6.83;;;;;;;;;;6253318;28;20219;-62
2023/05/15 04:22:50;;;;;;;10.73;6.17;;;;;;;;;;6247564;28;20191;-60
2023/05/15 04:25:52;;;;;;;7.47;4.57;;;;;;;;;;6262656;28;20186;-59
2023/05/15 04:28:55;;;;;;;7.20;3.97;;;;;;;;;;6265973;28;20261;-59
2023/05/15 04:31:56;;;;;;;6.17;4.23;;;;;;;;;;6258285;28;20205;-59
2023/05/15 04:34:57;;;;;;;8.77;5.57;;;;;;;;;;6250534;28;20197;-59
2023/05/15 04:37:58;;;;;;;7.27;4.60;;;;;;;;;;6257779;28;20244;-60
2023/05/15 04:40:59;;;;;;;7.70;4.63;;;;;;;;;;6252019;28;20233;-59
2023/05/15 04:44:00;;;;;;;13.67;6.27;;;;;;;;;;6267981;28;20190;-60
2023/05/15 04:47:01;;;;;;;8.50;5.27;;;;;;;;;;6255984;28;20221;-60
2023/05/15 04:50:03;;;;;;;5.80;4.60;;;;;;;;;;6271545;28;20223;-60
2023/05/15 04:53:04;;;;;;;9.80;6.23;;;;;;;;;;6268702;28;20194;-60
2023/05/15 04:56:05;;;;;;;8.07;4.33;;;;;;;;;;6258844;28;20199;-60
2023/05/15 04:59:06;;;;;;;6.20;4.40;;;;;;;;;;6249924;28;20198;-60
2023/05/15 05:02:08;;;;;;;9.47;5.30;;;;;;;;;;6260267;28;20655;-60
2023/05/15 05:05:09;;;;;;;7.50;5.00;;;;;;;;;;6263468;28;20263;-60
2023/05/15 05:08:10;;;;;;;7.20;4.57;;;;;;;;;;6256423;28;20240;-60
2023/05/15 05:11:11;;;;;;;8.80;5.10;;;;;;;;;;6238135;28;20195;-59
2023/05/15 05:14:13;;;;;;;8.57;5.53;;;;;;;;;;6248660;28;21179;-59
2023/05/15 05:17:14;;;;;;;9.80;6.13;;;;;;;;;;6264277;28;20217;-59
2023/05/15 05:20:15;;;;;;;19.73;9.57;;;;;;;;;;6255749;28;20354;-60
2023/05/15 05:23:17;;;;;;;11.73;7.03;;;;;;;;;;6256046;28;20251;-60
2023/05/15 05:26:18;;;;;;;10.63;6.40;;;;;;;;;;6248407;28;20204;-60
2023/05/15 05:29:19;;;;;;;10.43;5.80;;;;;;;;;;6252993;28;20193;-59
2023/05/15 05:32:20;;;;;;;14.37;7.57;;;;;;;;;;6263210;28;20200;-60
2023/05/15 05:35:21;;;;;;;17.37;8.70;;;;;;;;;;6258514;28;20190;-60
2023/05/15 05:38:22;;;;;;;16.90;9.23;;;;;;;;;;6247477;28;20317;-59
2023/05/15 05:41:23;;;;;;;16.43;9.00;;;;;;;;;;6236163;28;20214;-59
2023/05/15 05:44:24;;;;;;;20.40;9.63;;;;;;;;;;6265690;28;20197;-60
2023/05/15 05:47:25;;;;;;;17.50;8.83;;;;;;;;;;6263214;28;20247;-60
2023/05/15 05:50:26;;;;;;;15.37;7.87;;;;;;;;;;6246554;28;20193;-59
2023/05/15 05:53:27;;;;;;;12.83;7.10;;;;;;;;;;6261216;28;20197;-59
2023/05/15 05:56:28;;;;;;;11.97;7.30;;;;;;;;;;6265103;28;20770;-59
2023/05/15 05:59:30;;;;;;;11.90;6.90;;;;;;;;;;6262981;28;20225;-59
2023/05/15 06:02:31;;;;;;;17.43;9.57;;;;;;;;;;6254999;28;20218;-59
2023/05/15 06:05:33;;;;;;;15.70;9.43;;;;;;;;;;6253552;28;20197;-60
2023/05/15 06:08:34;;;;;;;14.90;9.30;;;;;;;;;;6249085;28;20217;-59
2023/05/15 06:11:36;;;;;;;14.67;9.20;;;;;;;;;;6257752;28;20204;-60
2023/05/15 06:14:37;;;;;;;14.50;8.17;;;;;;;;;;6260889;28;20198;-60
2023/05/15 06:17:38;;;;;;;15.40;8.10;;;;;;;;;;6253740;28;20193;-59
2023/05/15 06:20:41;;;;;;;14.43;7.83;;;;;;;;;;6259272;28;20213;-59
2023/05/15 06:23:42;;;;;;;17.33;8.20;;;;;;;;;;6252323;28;20244;-59
2023/05/15 06:26:43;;;;;;;12.83;7.17;;;;;;;;;;6244989;28;20281;-59
2023/05/15 06:29:44;;;;;;;11.53;7.07;;;;;;;;;;6256982;28;20205;-59
2023/05/15 06:32:45;;;;;;;13.00;7.10;;;;;;;;;;6251176;28;20201;-59
2023/05/15 06:35:46;;;;;;;18.97;9.20;;;;;;;;;;6272284;28;20199;-59
2023/05/15 06:38:47;;;;;;;14.20;7.93;;;;;;;;;;6240323;28;20226;-59
2023/05/15 06:41:49;;;;;;;15.60;9.00;;;;;;;;;;6250413;28;20229;-59
2023/05/15 06:44:50;;;;;;;16.87;9.57;;;;;;;;;;6268522;28;20276;-59
2023/05/15 06:47:51;;;;;;;19.27;8.60;;;;;;;;;;6248168;28;20202;-58
2023/05/15 06:50:52;;;;;;;17.63;8.10;;;;;;;;;;6249020;28;20229;-59
2023/05/15 06:53:53;;;;;;;13.87;7.13;;;;;;;;;;6250825;28;20259;-59
2023/05/15 06:56:54;;;;;;;13.37;8.23;;;;;;;;;;6247188;28;20194;-59
2023/05/15 06:59:55;;;;;;;16.10;7.70;;;;;;;;;;6250714;28;20220;-59
2023/05/15 07:02:56;;;;;;;16.17;7.53;;;;;;;;;;6250060;28;20198;-59
2023/05/15 07:05:57;;;;;;;9.67;6.53;;;;;;;;;;6262212;28;20193;-59
2023/05/15 07:08:58;;;;;;;16.10;6.70;;;;;;;;;;6268244;28;20193;-60
2023/05/15 07:12:00;;;;;;;11.73;6.10;;;;;;;;;;6271278;28;20197;-59
2023/05/15 07:15:01;;;;;;;12.30;5.40;;;;;;;;;;6254429;28;20194;-59
2023/05/15 07:18:02;;;;;;;13.57;6.33;;;;;;;;;;6240635;28;20201;-59
2023/05/15 07:21:03;;;;;;;12.70;6.27;;;;;;;;;;6249170;28;20221;-58
2023/05/15 07:24:04;;;;;;;10.23;5.30;;;;;;;;;;6249452;28;20289;-59
2023/05/15 07:27:05;;;;;;;10.03;5.23;;;;;;;;;;6262772;28;20218;-59
2023/05/15 07:30:06;;;;;;;10.27;5.57;;;;;;;;;;6259261;28;20186;-59
2023/05/15 07:33:07;;;;;;;11.57;5.10;;;;;;;;;;6255964;28;20235;-59
2023/05/15 07:36:08;;;;;;;9.93;5.27;;;;;;;;;;6267953;28;20201;-59
2023/05/15 07:39:09;;;;;;;8.20;4.97;;;;;;;;;;6246501;28;20233;-59
2023/05/15 07:42:11;;;;;;;7.10;4.30;;;;;;;;;;6254425;28;20191;-59
2023/05/15 07:45:12;;;;;;;10.67;4.50;;;;;;;;;;6249070;28;20201;-59
2023/05/15 07:48:17;;;;;;;5.37;2.93;;;;;;;;;;6259106;28;20186;-59
2023/05/15 07:51:18;;;;;;;5.80;2.63;;;;;;;;;;6266927;28;20197;-59
2023/05/15 07:54:20;;;;;;;3.83;2.70;;;;;;;;;;6263211;28;20194;-59
2023/05/15 07:57:21;;;;;;;5.97;3.23;;;;;;;;;;6261883;28;20198;-59
2023/05/15 08:00:22;;;;;;;6.60;2.90;;;;;;;;;;6257181;28;20224;-59
2023/05/15 08:03:23;;;;;;;2.73;2.33;;;;;;;;;;6249290;28;20559;-59
2023/05/15 08:06:24;;;;;;;3.73;2.17;;;;;;;;;;6259946;28;20193;-59
2023/05/15 08:09:25;;;;;;;3.00;2.33;;;;;;;;;;6260290;28;20190;-59
2023/05/15 08:12:26;;;;;;;2.97;2.17;;;;;;;;;;6240634;28;20186;-59
2023/05/15 08:15:28;;;;;;;2.70;2.10;;;;;;;;;;6256544;28;20284;-59
2023/05/15 08:18:29;;;;;;;3.10;2.77;;;;;;;;;;6262777;28;20248;-60
2023/05/15 08:21:31;;;;;;;2.00;1.10;;;;;;;;;;6250479;28;20313;-59
2023/05/15 08:24:32;;;;;;;1.37;1.23;;;;;;;;;;6249612;28;20189;-59
2023/05/15 08:27:33;;;;;;;2.53;1.03;;;;;;;;;;6257585;28;20189;-59
2023/05/15 08:30:34;;;;;;;1.87;1.03;;;;;;;;;;6270010;28;20675;-58
2023/05/15 08:33:35;;;;;;;0.80;0.77;;;;;;;;;;6248056;28;20197;-58
2023/05/15 08:36:37;;;;;;;2.67;0.70;;;;;;;;;;6247714;28;20232;-59
2023/05/15 08:39:38;;;;;;;0.77;0.50;;;;;;;;;;6249701;28;20286;-59
2023/05/15 08:42:39;;;;;;;2.23;0.60;;;;;;;;;;6250240;28;20272;-59
2023/05/15 08:45:40;;;;;;;0.50;0.50;;;;;;;;;;6264050;28;20225;-59
2023/05/15 08:48:41;;;;;;;0.40;0.40;;;;;;;;;;6253271;28;20212;-59
2023/05/15 08:51:42;;;;;;;1.07;0.80;;;;;;;;;;6247024;28;20190;-59
2023/05/15 08:54:44;;;;;;;0.50;0.50;;;;;;;;;;6266065;28;20197;-59
2023/05/15 08:57:45;;;;;;;1.63;0.70;;;;;;;;;;6269058;28;20190;-59
2023/05/15 09:00:47;;;;;;;0.60;0.60;;;;;;;;;;6259267;28;20267;-59
2023/05/15 09:03:48;;;;;;;0.70;0.70;;;;;;;;;;6250489;28;20202;-59
2023/05/15 09:06:50;;;;;;;1.10;0.80;;;;;;;;;;6245712;28;20198;-58
2023/05/15 09:09:51;;;;;;;0.50;0.50;;;;;;;;;;6267237;28;20212;-58
2023/05/15 09:12:52;;;;;;;0.47;0.40;;;;;;;;;;6257304;28;20193;-58
2023/05/15 09:15:53;;;;;;;1.17;0.50;;;;;;;;;;6252229;28;20236;-58
2023/05/15 09:18:54;;;;;;;0.53;0.43;;;;;;;;;;6250908;28;20282;-59
2023/05/15 09:21:55;;;;;;;0.40;0.40;;;;;;;;;;6248101;28;20228;-59
2023/05/15 09:24:56;;;;;;;1.83;0.50;;;;;;;;;;6263308;28;20193;-59
2023/05/15 09:27:58;;;;;;;0.40;0.40;;;;;;;;;;6253310;28;20252;-58
2023/05/15 09:31:00;;;;;;;1.50;0.60;;;;;;;;;;6257523;28;20233;-58
2023/05/15 09:34:03;;;;;;;3.03;0.40;;;;;;;;;;6264673;28;20201;-58
2023/05/15 09:37:05;;;;;;;1.60;0.60;;;;;;;;;;6253917;28;20295;-58
2023/05/15 09:40:10;;;;;;;0.40;0.40;;;;;;;;;;6252378;28;20267;-58
2023/05/15 09:43:11;;;;;;;0.23;0.20;;;;;;;;;;6249158;28;20645;-59
2023/05/15 09:46:14;;;;;;;1.90;0.33;;;;;;;;;;6258007;28;20198;-59
2023/05/15 09:49:15;;;;;;;0.40;0.30;;;;;;;;;;6251325;28;20213;-59
2023/05/15 09:52:16;;;;;;;0.60;0.40;;;;;;;;;;6254213;28;20185;-59
2023/05/15 09:55:21;;;;;;;1.53;0.37;;;;;;;;;;6248711;28;20194;-59
2023/05/15 09:58:22;;;;;;;1.07;0.30;;;;;;;;;;6258959;28;20252;-59
2023/05/15 10:01:23;;;;;;;2.03;0.40;;;;;;;;;;6251912;28;20209;-59
2023/05/15 10:04:24;;;;;;;0.93;0.30;;;;;;;;;;6249618;28;20289;-59
2023/05/15 10:07:35;;;;;;;0.93;0.20;;;;;;;;;;6257564;28;20195;-59
2023/05/15 10:10:36;;;;;;;2.10;0.23;;;;;;;;;;6249745;28;20289;-58
2023/05/15 10:13:37;;;;;;;0.20;0.20;;;;;;;;;;6253891;28;20190;-59
2023/05/15 10:16:39;;;;;;;0.30;0.30;;;;;;;;;;6245990;28;20190;-59
2023/05/15 10:19:40;;;;;;;0.90;0.30;;;;;;;;;;6249305;28;20211;-59
2023/05/15 10:22:44;;;;;;;0.40;0.40;;;;;;;;;;6260601;28;20190;-59
2023/05/15 10:25:50;;;;;;;1.03;0.20;;;;;;;;;;6262481;28;20176;-58
2023/05/15 10:28:52;;;;;;;0.93;0.30;;;;;;;;;;6265975;28;20199;-59
2023/05/15 10:31:53;;;;;;;0.10;0.10;;;;;;;;;;6249445;28;20191;-60
2023/05/15 10:34:55;;;;;;;0.30;0.30;;;;;;;;;;6244342;28;20285;-61
2023/05/15 10:37:56;;;;;;;1.90;0.30;;;;;;;;;;6262829;28;20231;-61
2023/05/15 10:40:58;;;;;;;0.30;0.23;;;;;;;;;;6251037;28;20290;-61
2023/05/15 10:44:00;;;;;;;0.50;0.30;;;;;;;;;;6244513;28;20781;-59
2023/05/15 10:47:01;;;;;;;0.20;0.20;;;;;;;;;;6259193;28;20620;-57
2023/05/15 10:50:03;;;;;;;0.53;0.30;;;;;;;;;;6261283;28;20281;-57
2023/05/15 10:53:05;;;;;;;1.60;0.30;;;;;;;;;;6243033;28;20222;-58
2023/05/15 10:56:06;;;;;;;0.63;0.40;;;;;;;;;;6249998;28;20209;-55
2023/05/15 10:59:08;;;;;;;0.43;0.20;;;;;;;;;;6248832;28;20198;-59
2023/05/15 11:02:20;;;;;;;0.10;0.10;;;;;;;;;;6251774;28;20218;-59
2023/05/15 11:05:21;;;;;;;1.90;0.30;;;;;;;;;;6269934;28;20190;-57
2023/05/15 11:08:24;;;;;;;0.53;0.23;;;;;;;;;;6249603;28;20190;-58
2023/05/15 11:11:44;;;;;;;0.20;0.20;;;;;;;;;;6260195;28;20198;-59
2023/05/15 11:14:51;;;;;;;0.10;0.10;;;;;;;;;;6251819;28;20191;-59
2023/05/15 11:18:05;;;;;;;0.20;0.20;;;;;;;;;;6263756;28;20195;-59
2023/05/15 11:21:07;;;;;;;0.20;0.20;;;;;;;;;;6253334;28;20232;-59
2023/05/15 11:24:11;;;;;;;1.33;0.20;;;;;;;;;;6261699;28;20190;-59
2023/05/15 11:27:12;;;;;;;0.13;0.10;;;;;;;;;;6255806;28;20191;-59
2023/05/15 11:30:16;;;;;;;0.20;0.20;;;;;;;;;;6275993;28;20194;-59
2023/05/15 11:33:19;;;;;;;0.70;0.20;;;;;;;;;;6252319;28;20218;-59
2023/05/15 11:36:23;;;;;;;0.20;0.20;;;;;;;;;;6262696;28;20272;-59
2023/05/15 11:39:25;;;;;;;0.20;0.20;;;;;;;;;;6266525;28;20234;-59
2023/05/15 11:42:26;;;;;;;0.13;0.13;;;;;;;;;;6257416;28;20199;-59
2023/05/15 11:45:32;;;;;;;0.83;0.23;;;;;;;;;;6287143;28;20186;-59
2023/05/15 11:48:34;;;;;;;0.90;0.20;;;;;;;;;;6260210;28;20189;-55
2023/05/15 11:51:41;;;;;;;1.90;0.27;;;;;;;;;;6264570;28;20217;-57
2023/05/15 11:54:42;;;;;;;0.10;0.10;;;;;;;;;;6250972;28;20241;-55
2023/05/15 11:57:45;;;;;;;1.13;0.13;;;;;;;;;;6264743;28;20198;-57
2023/05/15 12:00:47;;;;;;;0.60;0.10;;;;;;;;;;6259913;28;20217;-57
2023/05/15 12:03:48;;;;;;;4.03;0.40;;;;;;;;;;6260439;28;20251;-57
2023/05/15 12:06:49;;;;;;;0.87;0.20;;;;;;;;;;6260560;28;20204;-58
2023/05/15 12:09:51;;;;;;;0.27;0.10;;;;;;;;;;6270581;28;20194;-58
2023/05/15 12:12:52;;;;;;;0.93;0.20;;;;;;;;;;6261876;28;20207;-58
2023/05/15 12:15:54;;;;;;;0.00;0.00;;;;;;;;;;6263476;28;20208;-58
2023/05/15 12:18:59;;;;;;;0.73;0.10;;;;;;;;;;6258433;28;20183;-58
2023/05/15 12:22:00;;;;;;;0.43;0.20;;;;;;;;;;6277178;28;20214;-57
2023/05/15 12:25:01;;;;;;;0.28;0.10;;;;;;;;;;6252676;28;20208;-57
2023/05/15 12:28:04;;;;;;;1.20;0.10;;;;;;;;;;6277862;28;20212;-56
2023/05/15 12:31:05;;;;;;;0.10;0.10;;;;;;;;;;6270007;28;20275;-57
2023/05/15 12:34:06;;;;;;;0.60;0.00;;;;;;;;;;6260542;28;20193;-58
2023/05/15 12:37:12;;;;;;;1.50;0.17;;;;;;;;;;6256203;28;20226;-57
2023/05/15 12:40:14;;;;;;;0.27;0.17;;;;;;;;;;6253827;28;20225;-58
2023/05/15 12:43:15;;;;;;;1.23;0.10;;;;;;;;;;6252084;28;20201;-60
2023/05/15 12:46:16;;;;;;;0.50;0.10;;;;;;;;;;6262381;28;20244;-58
2023/05/15 12:49:21;;;;;;;0.20;0.20;;;;;;;;;;6285074;28;20224;-59
2023/05/15 12:52:22;;;;;;;0.10;0.10;;;;;;;;;;6250567;28;20269;-58
2023/05/15 12:55:24;;;;;;;0.50;0.20;;;;;;;;;;6257513;28;20235;-58
2023/05/15 12:58:25;;;;;;;1.40;0.37;;;;;;;;;;6266898;28;20182;-59
2023/05/15 13:01:28;;;;;;;0.77;0.10;;;;;;;;;;6254643;28;20247;-58
2023/05/15 13:04:32;;;;;;;0.00;0.00;;;;;;;;;;6267972;28;20225;-58
2023/05/15 13:07:33;;;;;;;0.10;0.10;;;;;;;;;;6260301;28;20187;-58
2023/05/15 13:10:35;;;;;;;0.63;0.10;;;;;;;;;;6269416;28;20274;-58
2023/05/15 13:13:41;;;;;;;0.20;0.10;;;;;;;;;;6263942;28;20197;-58
2023/05/15 13:16:43;;;;;;;0.00;0.00;;;;;;;;;;6257003;28;20185;-58
2023/05/15 13:19:44;;;;;;;0.43;0.20;;;;;;;;;;6245773;28;20187;-58
2023/05/15 13:22:45;;;;;;;0.73;0.20;;;;;;;;;;6245953;28;20220;-59
2023/05/15 13:25:46;;;;;;;1.40;0.20;;;;;;;;;;6252560;28;20201;-58
2023/05/15 13:28:48;;;;;;;0.38;0.10;;;;;;;;;;6262371;28;20193;-58
2023/05/15 13:31:49;;;;;;;2.03;1.27;;;;;;;;;;6260974;28;20214;-58
2023/05/15 13:34:53;;;;;;;0.80;0.65;;;;;;;;;;6244747;28;20213;-58
2023/05/15 13:37:55;;;;;;;1.40;0.25;;;;;;;;;;6247650;28;20256;-60
2023/05/15 13:40:56;;;;;;;2.42;0.20;;;;;;;;;;6249926;28;20178;-60
2023/05/15 13:43:57;;;;;;;0.57;0.10;;;;;;;;;;6249991;28;20190;-58
2023/05/15 13:47:03;;;;;;;0.65;0.22;;;;;;;;;;6255530;28;20200;-57
2023/05/15 13:50:04;;;;;;;1.65;0.20;;;;;;;;;;6253625;28;20248;-58
2023/05/15 13:53:05;;;;;;;0.10;0.10;;;;;;;;;;6233231;28;20205;-57
2023/05/15 13:56:06;;;;;;;2.33;0.30;;;;;;;;;;6252487;28;20194;-57
2023/05/15 13:59:07;;;;;;;0.10;0.10;;;;;;;;;;6264764;28;20285;-57
2023/05/15 14:02:08;;;;;;;1.13;0.08;;;;;;;;;;6260884;28;20193;-57
2023/05/15 14:05:10;;;;;;;2.25;0.10;;;;;;;;;;6245403;28;20230;-58
2023/05/15 14:08:11;;;;;;;1.75;0.22;;;;;;;;;;6268296;28;20189;-58
2023/05/15 14:11:12;;;;;;;0.95;0.20;;;;;;;;;;6251614;28;20231;-64
2023/05/15 14:14:13;;;;;;;0.10;0.10;;;;;;;;;;6247149;28;20222;-65
2023/05/15 14:17:15;;;;;;;0.20;0.20;;;;;;;;;;6254784;28;20186;-60
2023/05/15 14:20:16;;;;;;;0.20;0.20;;;;;;;;;;6260432;28;20216;-61
2023/05/15 14:23:18;;;;;;;0.43;0.13;;;;;;;;;;6253242;28;20197;-60
2023/05/15 14:26:20;;;;;;;1.47;0.20;;;;;;;;;;6270898;28;20201;-62
2023/05/15 14:29:21;;;;;;;0.77;0.20;;;;;;;;;;6253057;28;20198;-60
2023/05/15 14:32:23;;;;;;;0.10;0.10;;;;;;;;;;6247391;28;20244;-56
2023/05/15 14:35:24;;;;;;;0.30;0.20;;;;;;;;;;6259208;28;20190;-57
2023/05/15 14:38:25;;;;;;;0.57;0.57;;;;;;;;;;6244419;28;20230;-62
2023/05/15 14:41:27;;;;;;;1.80;0.50;;;;;;;;;;6251235;28;20282;-61
2023/05/15 14:44:28;;;;;;;0.60;0.20;;;;;;;;;;6272835;28;20249;-63
2023/05/15 14:47:29;;;;;;;0.50;0.50;;;;;;;;;;6253423;28;20323;-63
2023/05/15 14:50:30;;;;;;;0.17;0.17;;;;;;;;;;6246517;28;20222;-62
2023/05/15 14:53:31;;;;;;;1.67;0.20;;;;;;;;;;6257430;28;20190;-62
2023/05/15 14:56:32;;;;;;;0.47;0.27;;;;;;;;;;6256683;28;20197;-61
2023/05/15 14:59:33;;;;;;;0.40;0.20;;;;;;;;;;6271987;28;20199;-56
2023/05/15 15:02:34;;;;;;;0.57;0.20;;;;;;;;;;6261205;28;20249;-56
2023/05/15 15:05:35;;;;;;;0.73;0.60;;;;;;;;;;6272161;28;20212;-54
2023/05/15 15:08:36;;;;;;;1.67;0.50;;;;;;;;;;6249684;28;20262;-53
2023/05/15 15:11:37;;;;;;;1.90;0.70;;;;;;;;;;6269088;28;20217;-53
2023/05/15 15:14:38;;;;;;;1.00;0.30;;;;;;;;;;6256408;28;20199;-53
2023/05/15 15:17:40;;;;;;;0.83;0.40;;;;;;;;;;6266739;28;20187;-55
2023/05/15 15:20:41;;;;;;;0.20;0.20;;;;;;;;;;6266024;28;20190;-50
2023/05/15 15:23:43;;;;;;;0.10;0.10;;;;;;;;;;6255999;28;20266;-53
2023/05/15 15:26:44;;;;;;;0.10;0.10;;;;;;;;;;6235768;28;20201;-51
2023/05/15 15:29:45;;;;;;;0.00;0.00;;;;;;;;;;6250237;28;20199;-54
2023/05/15 15:32:46;;;;;;;0.10;0.10;;;;;;;;;;6258844;28;20200;-49
2023/05/15 15:35:47;;;;;;;0.43;0.20;;;;;;;;;;6256182;28;20189;-53
2023/05/15 15:38:48;;;;;;;0.20;0.20;;;;;;;;;;6255690;28;20233;-52
2023/05/15 15:41:50;;;;;;;0.20;0.20;;;;;;;;;;6252011;28;20337;-57
2023/05/15 15:44:51;;;;;;;1.00;0.20;;;;;;;;;;6265250;28;20215;-57
2023/05/15 15:47:52;;;;;;;0.83;0.40;;;;;;;;;;6253139;28;20206;-53
2023/05/15 15:50:53;;;;;;;0.77;0.40;;;;;;;;;;6264215;28;20243;-51
2023/05/15 15:53:54;;;;;;;1.40;0.30;;;;;;;;;;6270389;28;20186;-54
2023/05/15 15:56:55;;;;;;;1.50;0.40;;;;;;;;;;6254667;28;20198;-52
2023/05/15 15:59:56;;;;;;;1.13;0.60;;;;;;;;;;6275631;28;20190;-52
2023/05/15 16:02:57;;;;;;;0.50;0.50;;;;;;;;;;6255459;28;20198;-51
2023/05/15 16:05:58;;;;;;;1.00;0.40;;;;;;;;;;6256460;28;20248;-52
2023/05/15 16:09:00;;;;;;;0.80;0.60;;;;;;;;;;6271402;28;20367;-54
2023/05/15 16:12:02;;;;;;;1.80;0.60;;;;;;;;;;6259051;28;20221;-52
2023/05/15 16:15:03;;;;;;;0.43;0.40;;;;;;;;;;6270398;28;20292;-53
2023/05/15 16:18:04;;;;;;;1.20;0.53;;;;;;;;;;6257290;28;20293;-50
2023/05/15 16:21:05;;;;;;;3.10;0.50;;;;;;;;;;6262426;28;20209;-55
2023/05/15 16:24:06;;;;;;;1.90;0.33;;;;;;;;;;6249841;28;20205;-51
2023/05/15 16:27:08;;;;;;;0.30;0.30;;;;;;;;;;6240530;28;20255;-55
2023/05/15 16:30:10;;;;;;;0.73;0.40;;;;;;;;;;6252361;28;20214;-54
2023/05/15 16:33:11;;;;;;;0.30;0.30;;;;;;;;;;6248867;28;20277;-58
2023/05/15 16:36:12;;;;;;;2.73;0.67;;;;;;;;;;6268367;28;20195;-55
2023/05/15 16:39:13;;;;;;;4.00;0.60;;;;;;;;;;6264228;28;20229;-54
2023/05/15 16:42:14;;;;;;;0.60;0.47;;;;;;;;;;6277643;28;20284;-55
2023/05/15 16:45:15;;;;;;;1.27;0.63;;;;;;;;;;6251103;28;20217;-53
2023/05/15 16:48:16;;;;;;;1.23;0.50;;;;;;;;;;6250258;28;20217;-52
2023/05/15 16:51:17;;;;;;;0.70;0.40;;;;;;;;;;6239818;28;20313;-51
2023/05/15 16:54:18;;;;;;;1.00;0.77;;;;;;;;;;6266126;28;20194;-57
2023/05/15 16:57:19;;;;;;;1.27;0.50;;;;;;;;;;6253831;28;20190;-56
2023/05/15 17:00:20;;;;;;;2.20;0.53;;;;;;;;;;6253669;28;20279;-58
2023/05/15 17:03:21;;;;;;;0.37;0.37;;;;;;;;;;6250660;28;20328;-58
2023/05/15 17:06:22;;;;;;;1.37;0.40;;;;;;;;;;6247882;28;20203;-57
2023/05/15 17:09:23;;;;;;;0.23;0.23;;;;;;;;;;6252065;28;20279;-57
2023/05/15 17:12:25;;;;;;;0.60;0.47;;;;;;;;;;6243830;28;20228;-60
2023/05/15 17:15:26;;;;;;;1.20;0.63;;;;;;;;;;6263144;28;20201;-62
2023/05/15 17:18:27;;;;;;;0.63;0.40;;;;;;;;;;6258476;28;20193;-62
2023/05/15 17:21:28;;;;;;;0.40;0.40;;;;;;;;;;6259606;28;20197;-63
2023/05/15 17:24:29;;;;;;;5.63;0.80;;;;;;;;;;6251827;28;20690;-54
2023/05/15 17:27:31;;;;;;;1.17;0.37;;;;;;;;;;6260026;28;20190;-58
2023/05/15 17:30:32;;;;;;;0.23;0.23;;;;;;;;;;6251875;28;20214;-63
2023/05/15 17:33:33;;;;;;;1.10;0.37;;;;;;;;;;6261498;28;20280;-63
2023/05/15 17:36:34;;;;;;;0.97;0.43;;;;;;;;;;6257546;28;20185;-62
2023/05/15 17:39:36;;;;;;;0.30;0.30;;;;;;;;;;6262661;28;20236;-62
2023/05/15 17:42:38;;;;;;;2.43;0.40;;;;;;;;;;6269180;28;20225;-62
2023/05/15 17:45:39;;;;;;;1.33;0.33;;;;;;;;;;6258039;28;20186;-62
2023/05/15 17:48:40;;;;;;;0.27;0.27;;;;;;;;;;6261484;28;20238;-63
2023/05/15 17:51:41;;;;;;;1.43;0.50;;;;;;;;;;6236305;28;20224;-63
2023/05/15 17:54:42;;;;;;;3.60;0.50;;;;;;;;;;6248506;28;20194;-65
2023/05/15 17:57:43;;;;;;;2.33;0.53;;;;;;;;;;6262739;28;20348;-64
2023/05/15 18:00:44;;;;;;;4.27;0.70;;;;;;;;;;6244796;28;20200;-59
2023/05/15 18:03:46;;;;;;;0.47;0.40;;;;;;;;;;6259247;28;20201;-55